createdAt,value
2023-02-14T00:02:24.369Z,8.57
2023-02-14T00:04:54.899Z,8.13
2023-02-14T00:07:27.006Z,7.50
2023-02-14T00:09:57.650Z,6.85
2023-02-14T00:12:28.117Z,7.45
2023-02-14T00:15:15.027Z,6.40
2023-02-14T00:17:45.555Z,6.63
2023-02-14T00:20:19.166Z,5.43
2023-02-14T00:22:51.294Z,6.07
2023-02-14T00:25:22.118Z,5.68
2023-02-14T00:27:52.659Z,5.60
2023-02-14T00:30:23.166Z,4.70
2023-02-14T00:32:56.747Z,5.05
2023-02-14T00:35:27.257Z,4.90
2023-02-14T00:37:59.362Z,5.95
2023-02-14T00:40:33.981Z,5.53
2023-02-14T00:43:04.511Z,7.30
2023-02-14T00:45:35.138Z,6.45
2023-02-14T00:48:05.747Z,7.13
2023-02-14T00:50:36.268Z,7.55
2023-02-14T00:53:08.423Z,6.03
2023-02-14T00:55:38.898Z,6.38
2023-02-14T00:58:09.419Z,5.55
2023-02-14T01:00:40.003Z,5.93
2023-02-14T01:03:10.575Z,5.63
2023-02-14T01:05:41.122Z,5.05
2023-02-14T01:08:13.332Z,6.22
2023-02-14T01:10:44.374Z,6.82
2023-02-14T01:13:15.966Z,5.18
2023-02-14T01:15:48.656Z,6.20
2023-02-14T01:18:20.207Z,4.75
2023-02-14T01:20:50.821Z,7.20
2023-02-14T01:23:23.024Z,6.05
2023-02-14T01:25:53.544Z,5.20
2023-02-14T01:28:24.024Z,4.85
2023-02-14T01:30:54.530Z,5.10
2023-02-14T01:33:25.574Z,4.88
2023-02-14T01:35:56.079Z,5.55
2023-02-14T01:38:28.357Z,5.93
2023-02-14T01:40:59.392Z,5.55
2023-02-14T01:43:30.158Z,4.82
2023-02-14T01:46:00.622Z,6.45
2023-02-14T01:48:31.184Z,6.10
2023-02-14T01:51:01.943Z,5.93
2023-02-14T01:53:34.286Z,5.15
2023-02-14T01:56:10.428Z,6.03
2023-02-14T01:58:45.880Z,4.47
2023-02-14T02:01:17.402Z,4.70
2023-02-14T02:03:51.804Z,5.18
2023-02-14T02:06:29.420Z,6.00
2023-02-14T02:09:10.376Z,4.65
2023-02-14T02:11:41.064Z,4.80
2023-02-14T02:14:16.844Z,5.70
2023-02-14T02:17:16.189Z,5.10
2023-02-14T02:20:29.764Z,4.82
2023-02-14T02:23:36.333Z,5.10
2023-02-14T02:26:37.149Z,4.15
2023-02-14T02:29:36.012Z,5.43
2023-02-14T02:32:45.262Z,6.18
2023-02-14T02:35:39.617Z,4.95
2023-02-14T02:38:24.001Z,5.90
2023-02-14T02:41:04.132Z,5.50
2023-02-14T02:43:46.561Z,4.53
2023-02-14T02:46:42.773Z,4.78
2023-02-14T02:49:36.759Z,6.38
2023-02-14T02:52:35.083Z,5.43
2023-02-14T02:55:10.883Z,5.68
2023-02-14T02:57:45.444Z,4.85
2023-02-14T03:00:17.136Z,5.28
2023-02-14T03:03:07.848Z,5.63
2023-02-14T03:05:39.606Z,6.13
2023-02-14T03:08:11.725Z,5.80
2023-02-14T03:10:43.084Z,5.25
2023-02-14T03:13:45.894Z,5.82
2023-02-14T03:16:37.351Z,4.80
2023-02-14T03:20:01.043Z,4.63
2023-02-14T03:22:44.389Z,4.97
2023-02-14T03:25:26.929Z,5.03
2023-02-14T03:28:07.216Z,5.18
2023-02-14T03:30:44.585Z,5.65
2023-02-14T03:33:19.861Z,4.90
2023-02-14T03:35:57.583Z,4.88
2023-02-14T03:38:34.095Z,5.78
2023-02-14T03:41:08.751Z,5.55
2023-02-14T03:43:43.959Z,4.70
2023-02-14T03:46:21.517Z,5.95
2023-02-14T03:48:55.541Z,4.90
2023-02-14T03:51:28.012Z,4.97
2023-02-14T03:54:01.733Z,4.82
2023-02-14T03:56:39.392Z,4.38
2023-02-14T03:59:17.036Z,5.43
2023-02-14T04:01:51.388Z,5.07
2023-02-14T04:04:25.017Z,4.80
2023-02-14T04:06:55.761Z,4.80
2023-02-14T04:09:26.220Z,4.15
2023-02-14T04:11:58.395Z,5.32
2023-02-14T04:14:30.355Z,5.18
2023-02-14T04:17:17.668Z,4.97
2023-02-14T04:19:48.086Z,5.55
2023-02-14T04:22:18.679Z,5.05
2023-02-14T04:24:49.375Z,5.40
2023-02-14T04:27:24.239Z,5.25
2023-02-14T04:29:55.015Z,5.20
2023-02-14T04:32:26.073Z,4.03
2023-02-14T04:34:56.596Z,5.20
2023-02-14T04:37:27.049Z,5.30
2023-02-14T04:39:57.524Z,5.28
2023-02-14T04:42:29.598Z,5.68
2023-02-14T04:45:00.780Z,5.47
2023-02-14T04:47:32.537Z,5.57
2023-02-14T04:50:03.010Z,6.55
2023-02-14T04:52:33.509Z,6.15
2023-02-14T04:55:04.094Z,6.60
2023-02-14T04:57:36.328Z,6.40
2023-02-14T05:00:07.318Z,6.18
2023-02-14T05:02:38.009Z,5.97
2023-02-14T05:05:10.069Z,6.05
2023-02-14T05:07:40.581Z,5.45
2023-02-14T05:10:12.058Z,6.38
2023-02-14T05:12:47.445Z,5.93
2023-02-14T05:15:18.084Z,5.25
2023-02-14T05:17:48.546Z,5.68
2023-02-14T05:20:19.135Z,5.93
2023-02-14T05:22:49.661Z,4.72
2023-02-14T05:25:20.362Z,4.60
2023-02-14T05:27:55.052Z,4.75
2023-02-14T05:30:28.757Z,4.55
2023-02-14T05:32:59.718Z,4.72
2023-02-14T05:35:30.629Z,5.18
2023-02-14T05:38:01.311Z,4.70
2023-02-14T05:40:32.058Z,5.38
2023-02-14T05:43:04.324Z,5.28
2023-02-14T05:45:34.841Z,5.30
2023-02-14T05:48:06.980Z,5.22
2023-02-14T05:50:37.677Z,4.60
2023-02-14T05:53:08.354Z,8.85
2023-02-14T05:55:39.209Z,4.85
2023-02-14T05:58:14.650Z,5.03
2023-02-14T06:00:45.331Z,4.78
2023-02-14T06:03:15.932Z,4.65
2023-02-14T06:05:46.496Z,6.03
2023-02-14T06:08:17.086Z,4.90
2023-02-14T06:10:47.766Z,5.28
2023-02-14T06:13:20.127Z,4.93
2023-02-14T06:15:51.430Z,4.95
2023-02-14T06:18:22.023Z,4.47
2023-02-14T06:20:54.033Z,5.45
2023-02-14T06:23:24.781Z,5.22
2023-02-14T06:25:55.367Z,6.28
2023-02-14T06:28:27.564Z,6.00
2023-02-14T06:30:58.511Z,4.72
2023-02-14T06:33:29.450Z,5.45
2023-02-14T06:36:00.097Z,6.00
2023-02-14T06:38:31.008Z,6.38
2023-02-14T06:41:06.716Z,5.78
2023-02-14T06:43:39.432Z,4.95
2023-02-14T06:46:10.064Z,5.65
2023-02-14T06:48:41.110Z,5.05
2023-02-14T06:51:11.953Z,6.35
2023-02-14T06:53:42.921Z,6.75
2023-02-14T06:56:13.581Z,5.28
2023-02-14T06:58:48.818Z,5.15
2023-02-14T07:01:19.385Z,5.93
2023-02-14T07:03:49.976Z,5.60
2023-02-14T07:06:20.626Z,5.68
2023-02-14T07:08:51.158Z,5.38
2023-02-14T07:11:21.752Z,5.63
2023-02-14T07:13:54.067Z,5.40
2023-02-14T07:16:24.670Z,4.80
2023-02-14T07:18:55.230Z,5.60
2023-02-14T07:21:25.808Z,5.20
2023-02-14T07:23:56.332Z,4.47
2023-02-14T07:26:26.848Z,5.50
2023-02-14T07:28:59.035Z,4.13
2023-02-14T07:31:29.736Z,5.43
2023-02-14T07:34:02.581Z,5.63
2023-02-14T07:36:33.279Z,4.95
2023-02-14T07:39:03.761Z,5.93
2023-02-14T07:41:34.313Z,5.57
2023-02-14T07:44:06.520Z,5.00
2023-02-14T07:46:37.163Z,5.38
2023-02-14T07:49:07.957Z,4.70
2023-02-14T07:51:38.476Z,6.13
2023-02-14T07:54:09.078Z,6.95
2023-02-14T07:56:39.627Z,5.05
2023-02-14T07:59:11.756Z,6.13
2023-02-14T08:01:43.263Z,4.93
2023-02-14T08:04:15.825Z,4.95
2023-02-14T08:06:47.521Z,6.72
2023-02-14T08:09:25.788Z,5.60
2023-02-14T08:12:15.374Z,5.25
2023-02-14T08:14:49.252Z,6.05
2023-02-14T08:17:21.094Z,6.43
2023-02-14T08:19:52.531Z,6.90
2023-02-14T08:22:24.474Z,5.63
2023-02-14T08:24:56.047Z,6.95
2023-02-14T08:27:27.963Z,6.82
2023-02-14T08:30:01.353Z,6.50
2023-02-14T08:32:33.068Z,6.72
2023-02-14T08:35:05.240Z,7.72
2023-02-14T08:37:36.821Z,5.65
2023-02-14T08:40:08.606Z,7.18
2023-02-14T08:42:40.192Z,8.38
2023-02-14T08:45:14.324Z,6.90
2023-02-14T08:47:46.160Z,7.07
2023-02-14T08:50:19.489Z,7.80
2023-02-14T08:52:50.918Z,7.35
2023-02-14T08:55:22.886Z,6.57
2023-02-14T08:57:54.408Z,7.05
2023-02-14T09:00:28.366Z,7.47
2023-02-14T09:02:59.996Z,7.15
2023-02-14T09:05:32.068Z,7.13
2023-02-14T09:08:04.987Z,8.20
2023-02-14T09:10:36.471Z,7.60
2023-02-14T09:13:08.323Z,7.82
2023-02-14T09:15:41.746Z,7.25
2023-02-14T09:18:13.498Z,8.00
2023-02-14T09:20:45.572Z,8.07
2023-02-14T09:23:17.220Z,8.00
2023-02-14T09:25:48.468Z,6.75
2023-02-14T09:28:20.046Z,6.45
2023-02-14T09:30:54.547Z,7.10
2023-02-14T09:33:26.898Z,6.22
2023-02-14T09:36:17.484Z,8.10
2023-02-14T09:38:49.434Z,7.05
2023-02-14T09:42:00.719Z,6.90
2023-02-14T09:44:38.150Z,6.78
2023-02-14T09:47:21.435Z,6.80
2023-02-14T09:49:55.497Z,6.00
2023-02-14T09:52:32.565Z,6.95
2023-02-14T09:55:05.920Z,7.70
2023-02-14T09:57:46.316Z,6.55
2023-02-14T10:00:25.808Z,5.28
2023-02-14T10:03:16.270Z,7.63
2023-02-14T10:05:56.641Z,6.70
2023-02-14T10:08:45.258Z,7.88
2023-02-14T10:11:24.327Z,7.43
2023-02-14T10:14:00.435Z,7.82
2023-02-14T10:16:37.319Z,8.07
2023-02-14T10:19:21.135Z,9.55
2023-02-14T10:21:57.987Z,8.32
2023-02-14T10:24:34.282Z,7.65
2023-02-14T10:27:13.257Z,8.45
2023-02-14T10:29:46.058Z,10.43
2023-02-14T10:32:29.228Z,11.18
2023-02-14T10:35:08.906Z,10.82
2023-02-14T10:38:01.702Z,8.73
2023-02-14T10:41:07.400Z,7.05
2023-02-14T10:43:50.666Z,6.93
2023-02-14T10:47:40.586Z,8.73
2023-02-14T10:54:19.424Z,6.28
2023-02-14T10:57:07.825Z,6.40
2023-02-14T10:59:50.177Z,6.15
2023-02-14T11:02:26.006Z,5.93
2023-02-14T11:04:58.244Z,6.28
2023-02-14T11:07:31.561Z,6.18
2023-02-14T11:10:02.802Z,6.28
2023-02-14T11:12:43.172Z,6.32
2023-02-14T11:15:22.889Z,6.47
2023-02-14T11:18:10.399Z,5.35
2023-02-14T11:20:41.827Z,5.60
2023-02-14T11:23:24.619Z,4.38
2023-02-14T11:26:02.187Z,5.72
2023-02-14T11:28:35.913Z,5.72
2023-02-14T11:31:07.387Z,5.47
2023-02-14T11:33:42.454Z,5.68
2023-02-14T11:36:20.712Z,4.30
2023-02-14T11:39:04.264Z,5.20
2023-02-14T11:41:52.860Z,6.32
2023-02-14T11:44:28.861Z,4.80
2023-02-14T11:47:01.105Z,5.60
2023-02-14T11:49:34.722Z,5.22
2023-02-14T11:52:16.377Z,6.22
2023-02-14T11:54:52.516Z,5.40
2023-02-14T11:57:30.506Z,7.32
2023-02-14T12:00:04.292Z,8.35
2023-02-14T12:02:43.398Z,7.22
2023-02-14T12:05:23.749Z,5.63
2023-02-14T12:08:01.484Z,6.30
2023-02-14T12:10:36.553Z,5.82
2023-02-14T12:13:26.361Z,18.58
2023-02-14T12:16:02.656Z,10.82
2023-02-14T12:18:57.789Z,6.38
2023-02-14T12:21:50.691Z,6.43
2023-02-14T12:24:32.685Z,6.13
2023-02-14T12:27:21.323Z,5.97
2023-02-14T12:29:56.470Z,6.22
2023-02-14T12:32:29.434Z,6.13
2023-02-14T12:43:15.415Z,4.90
2023-02-14T12:46:11.450Z,6.07
2023-02-14T12:49:00.546Z,5.32
2023-02-14T12:51:35.520Z,9.35
2023-02-14T12:54:24.082Z,8.20
2023-02-14T12:57:10.853Z,13.30
2023-02-14T12:59:57.295Z,30.77
2023-02-14T13:03:16.175Z,50.08
2023-02-14T13:06:01.913Z,52.95
2023-02-14T13:09:13.737Z,46.90
2023-02-14T13:11:57.200Z,33.53
2023-02-14T13:14:48.069Z,19.25
2023-02-14T13:17:30.722Z,17.33
2023-02-14T13:20:09.244Z,16.15
2023-02-14T13:22:41.283Z,23.88
2023-02-14T13:25:31.938Z,20.80
2023-02-14T13:28:05.115Z,24.65
2023-02-14T13:30:43.463Z,60.35
2023-02-14T13:33:33.870Z,37.00
2023-02-14T13:36:09.830Z,8.57
2023-02-14T13:38:46.947Z,8.25
2023-02-14T13:41:19.985Z,7.53
2023-02-14T13:43:58.974Z,6.72
2023-02-14T13:46:56.995Z,30.50
2023-02-14T13:50:23.382Z,12.68
2023-02-14T13:57:56.154Z,11.98
2023-02-14T14:09:29.910Z,7.68
2023-02-14T14:12:30.267Z,7.20
2023-02-14T14:15:20.314Z,6.93
2023-02-14T14:18:07.344Z,6.72
2023-02-14T14:20:48.977Z,7.50
2023-02-14T14:23:41.528Z,6.20
2023-02-14T14:30:20.978Z,5.53
2023-02-14T14:32:55.103Z,6.00
2023-02-14T14:35:31.949Z,5.70
2023-02-14T14:41:16.288Z,5.43
2023-02-14T14:44:30.189Z,4.38
2023-02-14T14:47:38.317Z,7.13
2023-02-14T14:50:22.718Z,5.45
2023-02-14T14:53:06.938Z,6.40
2023-02-14T14:55:41.163Z,5.38
2023-02-14T14:58:44.077Z,5.32
2023-02-14T15:01:35.176Z,7.65
2023-02-14T15:04:24.788Z,9.45
2023-02-14T15:06:59.827Z,7.70
2023-02-14T15:09:36.693Z,9.93
2023-02-14T15:12:26.839Z,8.60
2023-02-14T15:15:19.236Z,8.38
2023-02-14T15:17:52.967Z,10.20
2023-02-14T15:20:31.622Z,7.50
2023-02-14T15:23:06.065Z,12.07
2023-02-14T15:25:45.460Z,7.45
2023-02-14T15:28:30.361Z,6.03
2023-02-14T15:31:07.779Z,9.48
2023-02-14T15:33:42.514Z,6.88
2023-02-14T15:36:39.246Z,8.48
2023-02-14T15:39:15.302Z,5.47
2023-02-14T15:42:30.467Z,6.80
2023-02-14T15:45:54.056Z,8.20
2023-02-14T15:48:33.973Z,7.30
2023-02-14T15:51:10.957Z,5.53
2023-02-14T15:57:07.798Z,5.03
2023-02-14T15:59:44.619Z,7.13
2023-02-14T16:02:31.712Z,10.75
2023-02-14T16:05:10.589Z,7.15
2023-02-14T16:07:42.947Z,5.78
2023-02-14T16:10:27.588Z,5.82
2023-02-14T16:13:44.949Z,8.10
2023-02-14T16:16:18.154Z,5.05
2023-02-14T16:18:53.135Z,7.38
2023-02-14T16:21:33.907Z,12.68
2023-02-14T16:24:16.410Z,7.95
2023-02-14T16:26:51.068Z,7.55
2023-02-14T16:29:33.913Z,12.13
2023-02-14T16:32:16.518Z,11.75
2023-02-14T16:34:49.653Z,11.40
2023-02-14T16:37:25.810Z,7.63
2023-02-14T16:39:59.058Z,11.23
2023-02-14T16:42:30.544Z,8.15
2023-02-14T16:45:06.188Z,10.18
2023-02-14T16:47:50.868Z,10.50
2023-02-14T16:50:23.692Z,7.50
2023-02-14T16:53:05.456Z,7.35
2023-02-14T16:55:38.361Z,9.43
2023-02-14T16:58:11.659Z,8.98
2023-02-14T17:00:45.563Z,13.68
2023-02-14T17:03:19.440Z,7.75
2023-02-14T17:06:51.239Z,7.70
2023-02-14T17:09:28.344Z,8.13
2023-02-14T17:12:06.219Z,6.60
2023-02-14T17:14:41.849Z,7.43
2023-02-14T17:17:14.158Z,6.18
2023-02-14T17:19:45.610Z,13.23
2023-02-14T17:22:17.905Z,10.73
2023-02-14T17:24:49.271Z,11.05
2023-02-14T17:27:22.424Z,11.57
2023-02-14T17:29:54.208Z,12.43
2023-02-14T17:32:25.782Z,9.77
2023-02-14T17:34:58.015Z,7.68
2023-02-14T17:37:29.891Z,11.43
2023-02-14T17:40:01.452Z,5.63
2023-02-14T17:42:36.356Z,12.40
2023-02-14T17:45:08.855Z,10.35
2023-02-14T17:47:40.352Z,11.55
2023-02-14T17:50:12.720Z,10.05
2023-02-14T17:52:44.351Z,8.80
2023-02-14T17:55:16.882Z,13.68
2023-02-14T17:57:53.442Z,14.60
2023-02-14T18:00:26.069Z,15.82
2023-02-14T18:02:57.712Z,13.95
2023-02-14T18:05:29.120Z,14.00
2023-02-14T18:08:03.986Z,9.65
2023-02-14T18:10:35.407Z,10.20
2023-02-14T18:13:08.696Z,9.75
2023-02-14T18:15:40.117Z,8.93
2023-02-14T18:18:11.747Z,7.00
2023-02-14T18:20:43.428Z,8.13
2023-02-14T18:23:14.904Z,7.53
2023-02-14T18:25:55.509Z,11.20
2023-02-14T18:28:31.004Z,7.35
2023-02-14T18:31:07.723Z,7.78
2023-02-14T18:33:39.635Z,9.10
2023-02-14T18:36:13.906Z,11.55
2023-02-14T18:38:46.603Z,9.18
2023-02-14T18:41:19.207Z,7.28
2023-02-14T18:43:53.132Z,5.80
2023-02-14T18:46:26.103Z,6.25
2023-02-14T18:48:59.212Z,5.57
2023-02-14T18:51:32.172Z,5.97
2023-02-14T18:54:05.570Z,5.03
2023-02-14T18:56:38.999Z,5.03
2023-02-14T18:59:14.355Z,5.78
2023-02-14T19:01:48.225Z,4.93
2023-02-14T19:04:21.570Z,7.15
2023-02-14T19:06:52.978Z,5.50
2023-02-14T19:09:27.034Z,6.50
2023-02-14T19:12:01.112Z,4.90
2023-02-14T19:14:34.609Z,4.60
2023-02-14T19:17:06.328Z,4.50
2023-02-14T19:19:37.926Z,4.75
2023-02-14T19:22:09.579Z,4.90
2023-02-14T19:24:41.176Z,4.53
2023-02-14T19:27:12.673Z,4.50
2023-02-14T19:29:46.024Z,4.60
2023-02-14T19:32:17.522Z,4.63
2023-02-14T19:34:49.411Z,5.28
2023-02-14T19:37:21.269Z,4.72
2023-02-14T19:39:53.103Z,5.10
2023-02-14T19:42:24.667Z,4.47
2023-02-14T19:44:58.015Z,4.35
2023-02-14T19:47:45.927Z,4.32
2023-02-14T19:50:19.461Z,4.30
2023-02-14T19:52:51.692Z,4.47
2023-02-14T19:55:25.936Z,4.43
2023-02-14T19:57:58.629Z,4.50
2023-02-14T20:00:31.963Z,4.30
2023-02-14T20:03:05.046Z,4.45
2023-02-14T20:05:36.484Z,4.20
2023-02-14T20:08:08.343Z,4.60
2023-02-14T20:10:39.922Z,5.30
2023-02-14T20:13:11.700Z,4.72
2023-02-14T20:15:46.539Z,4.85
2023-02-14T20:18:18.320Z,4.10
2023-02-14T20:21:05.709Z,4.45
2023-02-14T20:23:37.575Z,4.50
2023-02-14T20:26:14.030Z,5.47
2023-02-14T20:28:46.165Z,4.78
2023-02-14T20:31:20.298Z,4.10
2023-02-14T20:33:54.342Z,5.53
2023-02-14T20:36:29.082Z,4.45
2023-02-14T20:39:00.381Z,5.18
2023-02-14T20:41:31.647Z,4.90
2023-02-14T20:44:06.039Z,4.32
2023-02-14T20:46:38.676Z,4.40
2023-02-14T20:49:11.893Z,4.68
2023-02-14T20:51:43.233Z,5.25
2023-02-14T20:54:13.768Z,4.40
2023-02-14T20:56:44.281Z,4.13
2023-02-14T20:59:14.888Z,4.55
2023-02-14T21:01:47.263Z,5.43
2023-02-14T21:04:17.759Z,6.20
2023-02-14T21:06:48.599Z,4.93
2023-02-14T21:09:21.545Z,4.65
2023-02-14T21:11:54.614Z,7.28
2023-02-14T21:14:25.102Z,5.15
2023-02-14T21:16:57.082Z,5.03
2023-02-14T21:19:29.414Z,5.30
2023-02-14T21:22:00.011Z,5.20
2023-02-14T21:24:30.540Z,5.10
2023-02-14T21:27:02.562Z,5.05
2023-02-14T21:29:33.091Z,4.47
2023-02-14T21:32:05.338Z,4.70
2023-02-14T21:34:36.220Z,4.57
2023-02-14T21:37:06.758Z,4.95
2023-02-14T21:39:38.783Z,5.00
2023-02-14T21:42:12.226Z,5.43
2023-02-14T21:44:59.282Z,4.95
2023-02-14T21:47:31.321Z,5.93
2023-02-14T21:50:18.556Z,5.50
2023-02-14T21:52:49.131Z,5.35
2023-02-14T21:55:19.833Z,5.55
2023-02-14T21:57:50.389Z,4.97
2023-02-14T22:00:21.438Z,5.05
2023-02-14T22:02:53.622Z,5.18
2023-02-14T22:05:24.105Z,5.18
2023-02-14T22:07:54.658Z,5.93
2023-02-14T22:10:25.196Z,5.30
2023-02-14T22:12:55.699Z,4.95
2023-02-14T22:15:26.091Z,5.93
2023-02-14T22:17:58.134Z,12.27
2023-02-14T22:20:28.657Z,33.88
2023-02-14T22:22:59.197Z,23.23
2023-02-14T22:25:29.760Z,4.70
2023-02-14T22:28:00.225Z,4.90
2023-02-14T22:30:30.672Z,4.75
2023-02-14T22:33:02.704Z,6.32
2023-02-14T22:35:33.129Z,6.82
2023-02-14T22:38:03.577Z,5.82
2023-02-14T22:40:34.056Z,5.70
2023-02-14T22:43:04.576Z,7.97
2023-02-14T22:45:35.266Z,7.65
2023-02-14T22:48:07.771Z,6.53
2023-02-14T22:50:38.206Z,5.82
2023-02-14T22:53:08.776Z,9.00
2023-02-14T22:55:39.291Z,7.50
2023-02-14T22:58:09.988Z,7.28
2023-02-14T23:00:40.771Z,10.50
2023-02-14T23:03:14.518Z,9.32
2023-02-14T23:05:44.984Z,8.65
2023-02-14T23:08:15.377Z,7.93
2023-02-14T23:10:45.880Z,8.48
2023-02-14T23:13:33.191Z,12.73
2023-02-14T23:16:26.560Z,16.05
2023-02-14T23:19:15.145Z,13.65
2023-02-14T23:21:57.472Z,6.50
2023-02-14T23:24:28.037Z,5.90
2023-02-14T23:26:58.614Z,9.02
2023-02-14T23:29:29.035Z,5.00
2023-02-14T23:31:59.777Z,4.00
2023-02-14T23:34:34.197Z,5.63
2023-02-14T23:37:05.089Z,4.43
2023-02-14T23:39:39.361Z,4.15
2023-02-14T23:42:13.030Z,3.50
2023-02-14T23:44:44.889Z,3.78
2023-02-14T23:47:16.719Z,3.20
2023-02-14T23:49:48.898Z,3.50
2023-02-14T23:52:19.403Z,3.53
2023-02-14T23:54:49.855Z,3.25
2023-02-14T23:57:20.519Z,3.08
2023-02-14T23:59:51.053Z,3.88
